createdAt,value
2019-06-10T00:00:13.737Z,66.27
2019-06-10T00:04:18.829Z,65.94
2019-06-10T00:08:24.589Z,66.56
2019-06-10T00:12:31.488Z,65.07
2019-06-10T00:16:37.336Z,64.78
2019-06-10T00:20:43.205Z,64.33
2019-06-10T00:24:48.982Z,65.14
2019-06-10T00:28:54.673Z,65.91
2019-06-10T00:33:02.759Z,65.18
2019-06-10T00:37:12.013Z,62.55
2019-06-10T00:41:15.283Z,61.94
2019-06-10T00:45:21.593Z,62.97
2019-06-10T00:49:28.427Z,61.45
2019-06-10T00:53:34.201Z,59.55
2019-06-10T00:57:41.831Z,59.48
2019-06-10T01:01:47.673Z,62.45
2019-06-10T01:05:53.347Z,64.31
2019-06-10T01:10:00.973Z,63.87
2019-06-10T01:14:07.400Z,63.60
2019-06-10T01:18:33.666Z,64.40
2019-06-10T01:22:21.328Z,65.09
2019-06-10T01:26:27.119Z,65.04
2019-06-10T01:30:32.884Z,64.18
2019-06-10T01:34:38.609Z,63.94
2019-06-10T01:38:44.522Z,61.90
2019-06-10T01:42:51.181Z,63.51
2019-06-10T01:46:56.932Z,65.31
2019-06-10T01:51:02.655Z,66.39
2019-06-10T01:55:11.866Z,64.86
2019-06-10T01:59:16.956Z,64.34
2019-06-10T02:03:24.054Z,63.74
2019-06-10T02:07:31.958Z,65.81
2019-06-10T02:11:37.934Z,67.09
2019-06-10T02:15:43.641Z,67.25
2019-06-10T02:19:50.889Z,68.29
2019-06-10T02:23:56.783Z,68.27
2019-06-10T02:28:02.516Z,68.04
2019-06-10T02:32:08.211Z,66.31
2019-06-10T02:36:17.435Z,66.71
2019-06-10T02:40:29.284Z,67.17
2019-06-10T02:44:33.351Z,66.88
2019-06-10T02:48:36.605Z,66.25
2019-06-10T02:52:44.346Z,66.87
2019-06-10T02:56:53.433Z,68.39
2019-06-10T03:00:57.213Z,67.66
2019-06-10T03:05:04.509Z,66.97
2019-06-10T03:09:10.379Z,67.44
2019-06-10T03:13:16.104Z,68.06
2019-06-10T03:17:25.856Z,69.30
2019-06-10T03:21:32.299Z,66.51
2019-06-10T03:25:38.316Z,66.76
2019-06-10T03:29:44.016Z,67.98
2019-06-10T03:33:53.892Z,68.28
2019-06-10T03:37:57.358Z,65.57
2019-06-10T03:42:03.089Z,66.38
2019-06-10T03:46:08.786Z,67.82
2019-06-10T03:50:15.049Z,69.04
2019-06-10T03:54:24.451Z,71.34
2019-06-10T03:58:29.265Z,69.63
2019-06-10T04:02:35.198Z,68.39
2019-06-10T04:06:44.092Z,68.87
2019-06-10T04:10:48.345Z,68.08
2019-06-10T04:14:54.211Z,67.78
2019-06-10T04:19:02.326Z,67.99
2019-06-10T04:23:07.419Z,69.13
2019-06-10T04:27:13.240Z,71.19
2019-06-10T04:31:18.944Z,69.32
2019-06-10T04:35:26.230Z,69.00
2019-06-10T04:39:33.649Z,67.88
2019-06-10T04:43:39.617Z,66.41
2019-06-10T04:47:46.391Z,66.43
2019-06-10T04:51:52.507Z,67.01
2019-06-10T04:55:58.200Z,66.23
2019-06-10T05:00:11.200Z,64.59
2019-06-10T05:04:12.540Z,65.95
2019-06-10T05:08:19.011Z,67.30
2019-06-10T05:12:25.326Z,66.06
2019-06-10T05:16:35.539Z,64.38
2019-06-10T05:20:52.075Z,63.66
2019-06-10T05:24:47.802Z,63.52
2019-06-10T05:28:53.866Z,62.88
2019-06-10T05:32:59.607Z,63.81
2019-06-10T05:37:05.395Z,63.39
2019-06-10T05:41:13.354Z,62.89
2019-06-10T05:45:18.718Z,63.17
2019-06-10T05:49:25.968Z,63.09
2019-06-10T05:53:34.968Z,63.46
2019-06-10T05:57:39.254Z,63.07
2019-06-10T06:01:45.064Z,62.49
2019-06-10T06:05:52.498Z,62.34
2019-06-10T06:09:58.518Z,62.46
2019-06-10T06:14:04.483Z,63.59
2019-06-10T06:18:13.428Z,64.22
2019-06-10T06:22:17.931Z,63.60
2019-06-10T06:26:23.998Z,63.24
2019-06-10T06:30:30.187Z,62.39
2019-06-10T06:34:38.582Z,62.58
2019-06-10T06:38:43.958Z,63.43
2019-06-10T06:42:52.412Z,62.97
2019-06-10T06:46:57.276Z,62.07
2019-06-10T06:51:08.165Z,61.14
2019-06-10T06:55:12.817Z,60.74
2019-06-10T06:59:18.732Z,60.69
2019-06-10T07:03:24.460Z,60.00
2019-06-10T07:07:33.097Z,62.35
2019-06-10T07:11:45.047Z,60.33
2019-06-10T07:15:49.849Z,56.24
2019-06-10T07:19:57.590Z,53.89
2019-06-10T07:24:03.349Z,53.39
2019-06-10T07:28:09.066Z,52.46
2019-06-10T07:32:14.909Z,52.03
2019-06-10T07:36:23.329Z,51.54
2019-06-10T07:40:28.268Z,50.74
2019-06-10T07:44:34.878Z,53.23
2019-06-10T07:48:46.197Z,58.19
2019-06-10T07:52:48.919Z,57.40
2019-06-10T07:56:54.758Z,55.60
2019-06-10T08:01:02.661Z,54.93
2019-06-10T08:05:08.425Z,56.75
2019-06-10T08:09:14.220Z,53.84
2019-06-10T08:13:19.934Z,54.52
2019-06-10T08:17:25.722Z,53.95
2019-06-10T08:21:32.295Z,55.67
2019-06-10T08:25:38.497Z,55.61
2019-06-10T08:29:48.063Z,54.96
2019-06-10T08:33:53.454Z,54.83
2019-06-10T08:37:59.429Z,54.56
2019-06-10T08:42:05.579Z,55.66
2019-06-10T08:46:13.135Z,54.67
2019-06-10T08:50:22.266Z,54.84
2019-06-10T08:54:26.997Z,54.96
2019-06-10T08:58:33.262Z,55.98
2019-06-10T09:02:40.881Z,55.56
2019-06-10T09:06:49.557Z,56.24
2019-06-10T09:10:55.391Z,56.23
2019-06-10T09:15:03.735Z,55.18
2019-06-10T09:19:09.981Z,55.78
2019-06-10T09:23:22.091Z,55.37
2019-06-10T09:27:26.879Z,53.59
2019-06-10T09:31:33.156Z,51.23
2019-06-10T09:35:39.915Z,50.81
2019-06-10T09:39:52.299Z,47.87
2019-06-10T09:43:56.900Z,48.69
2019-06-10T09:48:03.992Z,47.74
2019-06-10T09:52:09.947Z,47.56
2019-06-10T09:56:15.832Z,47.95
2019-06-10T10:00:50.465Z,48.40
2019-06-10T10:04:58.354Z,44.13
2019-06-10T10:09:04.097Z,42.29
2019-06-10T10:13:13.075Z,41.40
2019-06-10T10:17:19.175Z,41.62
2019-06-10T10:21:24.871Z,44.58
2019-06-10T10:25:32.807Z,44.48
2019-06-10T10:29:38.418Z,43.55
2019-06-10T10:33:44.358Z,46.87
2019-06-10T10:37:53.447Z,45.71
2019-06-10T10:41:57.675Z,43.61
2019-06-10T10:46:05.448Z,42.05
2019-06-10T10:50:13.919Z,40.80
2019-06-10T10:54:29.827Z,42.74
2019-06-10T10:58:27.315Z,43.14
2019-06-10T11:02:33.144Z,41.85
2019-06-10T11:06:38.954Z,41.75
2019-06-10T11:10:49.170Z,42.69
2019-06-10T11:15:00.472Z,44.79
2019-06-10T11:19:02.803Z,44.05
2019-06-10T11:23:08.665Z,44.97
2019-06-10T11:27:14.343Z,46.43
2019-06-10T11:31:22.583Z,48.27
2019-06-10T11:35:27.691Z,47.60
2019-06-10T11:39:36.603Z,49.41
2019-06-10T11:43:42.939Z,49.31
2019-06-10T11:47:49.367Z,47.41
2019-06-10T11:51:57.640Z,47.64
2019-06-10T11:56:03.517Z,47.56
2019-06-10T12:00:14.802Z,48.74
2019-06-10T12:04:20.391Z,48.05
2019-06-10T12:08:26.472Z,48.07
2019-06-10T12:12:33.730Z,49.09
2019-06-10T12:20:47.639Z,48.04
2019-06-10T12:25:18.728Z,48.65
2019-06-10T12:29:05.290Z,48.46
2019-06-10T12:33:08.401Z,49.14
2019-06-10T12:37:15.917Z,47.32
2019-06-10T12:41:23.228Z,49.22
2019-06-10T12:45:32.517Z,48.85
2019-06-10T12:49:37.739Z,49.00
2019-06-10T12:53:43.638Z,49.15
2019-06-10T12:57:49.336Z,49.08
2019-06-10T13:01:55.837Z,49.48
2019-06-10T13:06:07.193Z,49.77
2019-06-10T13:10:15.289Z,49.85
2019-06-10T13:14:22.056Z,49.75
2019-06-10T13:18:27.956Z,49.79
2019-06-10T13:22:33.734Z,50.03
2019-06-10T13:26:42.996Z,50.21
2019-06-10T13:30:47.853Z,50.47
2019-06-10T13:34:56.429Z,50.67
2019-06-10T13:39:05.905Z,51.32
2019-06-10T13:43:09.650Z,51.19
2019-06-10T13:47:15.391Z,51.25
2019-06-10T13:51:21.155Z,52.32
2019-06-10T13:55:27.168Z,53.08
2019-06-10T13:59:32.899Z,53.25
2019-06-10T14:03:38.653Z,52.91
2019-06-10T14:07:44.469Z,53.25
2019-06-10T14:11:50.168Z,55.67
2019-06-10T14:15:55.895Z,58.17
2019-06-10T14:20:01.810Z,60.27
2019-06-10T14:24:08.196Z,60.02
2019-06-10T14:28:32.269Z,60.31
2019-06-10T14:32:22.489Z,59.97
2019-06-10T14:36:28.482Z,56.96
2019-06-10T14:40:34.205Z,59.07
2019-06-10T14:44:42.004Z,57.92
2019-06-10T14:48:47.427Z,55.34
2019-06-10T14:52:53.159Z,54.87
2019-06-10T14:56:59.276Z,54.57
2019-06-10T15:01:07.510Z,53.87
2019-06-10T15:05:15.563Z,53.64
2019-06-10T15:09:22.613Z,53.96
2019-06-10T15:13:28.034Z,53.81
2019-06-10T15:17:34.190Z,53.87
2019-06-10T15:21:39.919Z,54.51
2019-06-10T15:25:52.541Z,56.22
2019-06-10T15:29:53.172Z,55.48
2019-06-10T15:33:59.292Z,56.72
2019-06-10T15:38:05.176Z,54.79
2019-06-10T15:42:11.545Z,54.27
2019-06-10T15:46:17.976Z,54.01
2019-06-10T15:50:27.457Z,53.64
2019-06-10T15:54:33.337Z,54.04
2019-06-10T15:58:39.239Z,53.81
2019-06-10T16:02:45.033Z,54.91
2019-06-10T16:06:52.954Z,54.09
2019-06-10T16:10:58.728Z,53.44
2019-06-10T16:15:06.442Z,53.62
2019-06-10T16:19:13.338Z,53.87
2019-06-10T16:23:19.859Z,53.86
2019-06-10T16:27:43.682Z,54.31
2019-06-10T16:31:33.351Z,54.15
2019-06-10T16:35:39.082Z,53.97
2019-06-10T16:39:44.887Z,53.88
2019-06-10T16:43:52.237Z,55.96
2019-06-10T16:47:58.069Z,60.48
2019-06-10T16:52:03.907Z,63.33
2019-06-10T16:56:12.025Z,66.14
2019-06-10T17:00:18.398Z,65.95
2019-06-10T17:04:27.264Z,66.65
2019-06-10T17:08:33.418Z,66.01
2019-06-10T17:12:39.311Z,66.04
2019-06-10T17:16:45.007Z,66.75
2019-06-10T17:20:53.288Z,67.01
2019-06-10T17:24:58.213Z,68.69
2019-06-10T17:29:04.090Z,66.75
2019-06-10T17:33:09.869Z,66.27
2019-06-10T17:37:15.573Z,64.99
2019-06-10T17:41:25.840Z,66.56
2019-06-10T17:45:30.587Z,68.16
2019-06-10T17:49:36.635Z,68.33
2019-06-10T17:53:42.799Z,67.94
2019-06-10T17:57:48.576Z,66.57
2019-06-10T18:01:56.283Z,65.72
2019-06-10T18:06:02.771Z,65.47
2019-06-10T18:10:09.380Z,67.67
2019-06-10T18:14:15.132Z,68.72
2019-06-10T18:18:20.860Z,67.04
2019-06-10T18:22:28.475Z,68.90
2019-06-10T18:26:37.622Z,69.51
2019-06-10T18:30:43.435Z,68.07
2019-06-10T18:34:49.239Z,69.48
2019-06-10T18:38:54.913Z,69.42
2019-06-10T18:43:02.784Z,68.00
2019-06-10T18:47:08.148Z,67.96
2019-06-10T18:51:13.931Z,69.85
2019-06-10T18:55:22.587Z,71.21
2019-06-10T18:59:28.449Z,71.62
2019-06-10T19:03:36.267Z,69.37
2019-06-10T19:07:42.860Z,68.55
2019-06-10T19:11:49.002Z,69.49
2019-06-10T19:15:54.745Z,71.59
2019-06-10T19:20:00.502Z,72.04
2019-06-10T19:24:06.816Z,73.18
2019-06-10T19:28:13.618Z,72.49
2019-06-10T19:32:19.331Z,72.37
2019-06-10T19:36:25.036Z,72.42
2019-06-10T19:40:32.560Z,73.18
2019-06-10T19:44:39.214Z,73.31
2019-06-10T19:48:57.301Z,73.07
2019-06-10T19:52:52.391Z,73.29
2019-06-10T19:56:58.105Z,73.55
2019-06-10T20:01:03.838Z,72.53
2019-06-10T20:05:12.323Z,73.58
2019-06-10T20:09:17.596Z,73.55
2019-06-10T20:13:23.351Z,70.80
2019-06-10T20:17:29.196Z,70.81
2019-06-10T20:21:36.013Z,69.95
2019-06-10T20:25:44.283Z,70.15
2019-06-10T20:30:03.687Z,68.43
2019-06-10T20:33:58.680Z,64.75
2019-06-10T20:38:05.066Z,63.21
2019-06-10T20:42:12.902Z,62.38
2019-06-10T20:46:18.706Z,65.05
2019-06-10T20:50:24.555Z,68.29
2019-06-10T20:54:32.305Z,70.43
2019-06-10T20:58:38.741Z,70.76
2019-06-10T21:02:45.905Z,71.82
2019-06-10T21:06:53.737Z,73.47
2019-06-10T21:11:02.678Z,72.85
2019-06-10T21:15:09.701Z,71.60
2019-06-10T21:19:15.417Z,71.14
2019-06-10T21:23:22.501Z,69.82
2019-06-10T21:27:28.280Z,69.47
2019-06-10T21:31:34.167Z,70.55
2019-06-10T21:35:42.473Z,71.32
2019-06-10T21:39:49.595Z,70.13
2019-06-10T21:43:59.495Z,69.43
2019-06-10T21:48:04.183Z,67.60
2019-06-10T21:52:10.129Z,68.06
2019-06-10T21:56:15.883Z,67.79
2019-06-10T22:00:24.462Z,68.48
2019-06-10T22:04:32.628Z,70.00
2019-06-10T22:08:38.601Z,70.18
2019-06-10T22:12:44.317Z,70.45
2019-06-10T22:16:50.895Z,71.71
2019-06-10T22:20:57.759Z,72.30
2019-06-10T22:25:03.844Z,71.59
2019-06-10T22:29:09.528Z,71.28
2019-06-10T22:33:15.387Z,72.47
2019-06-10T22:37:21.099Z,73.71
2019-06-10T22:41:26.818Z,73.96
2019-06-10T22:45:32.656Z,74.47
2019-06-10T22:49:38.382Z,71.98
2019-06-10T22:53:44.094Z,70.82
2019-06-10T22:57:51.785Z,71.82
2019-06-10T23:01:59.978Z,71.97
2019-06-10T23:06:05.831Z,73.07
2019-06-10T23:10:12.359Z,74.00
2019-06-10T23:14:18.245Z,73.01
2019-06-10T23:18:23.967Z,70.64
2019-06-10T23:22:29.771Z,70.55
2019-06-10T23:26:35.515Z,70.49
2019-06-10T23:30:42.713Z,71.06
2019-06-10T23:34:48.955Z,70.60
2019-06-10T23:38:54.903Z,70.48
2019-06-10T23:43:01.657Z,68.99
2019-06-10T23:47:08.167Z,68.77
2019-06-10T23:51:13.922Z,69.81
2019-06-10T23:55:19.634Z,69.37
2019-06-10T23:59:25.424Z,69.25
